sensor_id;sensor_type;location;lat;lon;timestamp;P1;durP1;ratioP1;P2;durP2;ratioP2
2211;SDS011;48849;48.758;9.158;2022-10-03T00:00:40;3.45;;;3.15;;
2211;SDS011;48849;48.758;9.158;2022-10-03T00:03:33;2.80;;;2.60;;
2211;SDS011;48849;48.758;9.158;2022-10-03T00:06:09;4.15;;;3.35;;
2211;SDS011;48849;48.758;9.158;2022-10-03T00:08:50;3.40;;;3.00;;
2211;SDS011;48849;48.758;9.158;2022-10-03T00:11:42;2.90;;;2.55;;
2211;SDS011;48849;48.758;9.158;2022-10-03T00:14:30;4.95;;;2.80;;
2211;SDS011;48849;48.758;9.158;2022-10-03T00:17:09;3.28;;;2.97;;
2211;SDS011;48849;48.758;9.158;2022-10-03T00:19:43;3.30;;;2.78;;
2211;SDS011;48849;48.758;9.158;2022-10-03T00:22:21;4.10;;;2.65;;
2211;SDS011;48849;48.758;9.158;2022-10-03T00:25:02;3.08;;;2.88;;
2211;SDS011;48849;48.758;9.158;2022-10-03T00:27:46;2.80;;;2.60;;
2211;SDS011;48849;48.758;9.158;2022-10-03T00:30:18;10.60;;;4.75;;
2211;SDS011;48849;48.758;9.158;2022-10-03T00:33:00;2.95;;;2.65;;
2211;SDS011;48849;48.758;9.158;2022-10-03T00:35:41;3.95;;;3.20;;
2211;SDS011;48849;48.758;9.158;2022-10-03T00:41:24;4.57;;;3.40;;
2211;SDS011;48849;48.758;9.158;2022-10-03T00:44:16;5.47;;;3.85;;
2211;SDS011;48849;48.758;9.158;2022-10-03T00:50:13;4.97;;;4.18;;
2211;SDS011;48849;48.758;9.158;2022-10-03T00:53:02;7.05;;;5.03;;
2211;SDS011;48849;48.758;9.158;2022-10-03T00:55:51;5.90;;;4.30;;
2211;SDS011;48849;48.758;9.158;2022-10-03T00:58:39;4.30;;;4.00;;
2211;SDS011;48849;48.758;9.158;2022-10-03T01:01:21;4.25;;;3.95;;
2211;SDS011;48849;48.758;9.158;2022-10-03T01:04:01;4.80;;;4.30;;
2211;SDS011;48849;48.758;9.158;2022-10-03T01:06:53;7.00;;;3.70;;
2211;SDS011;48849;48.758;9.158;2022-10-03T01:09:33;5.35;;;4.80;;
2211;SDS011;48849;48.758;9.158;2022-10-03T01:12:11;4.82;;;4.43;;
2211;SDS011;48849;48.758;9.158;2022-10-03T01:14:57;6.78;;;6.15;;
2211;SDS011;48849;48.758;9.158;2022-10-03T01:17:41;6.43;;;5.95;;
2211;SDS011;48849;48.758;9.158;2022-10-03T01:20:21;5.70;;;5.20;;
2211;SDS011;48849;48.758;9.158;2022-10-03T01:23:01;5.72;;;5.10;;
2211;SDS011;48849;48.758;9.158;2022-10-03T01:25:57;5.35;;;4.85;;
2211;SDS011;48849;48.758;9.158;2022-10-03T01:28:38;5.85;;;4.85;;
2211;SDS011;48849;48.758;9.158;2022-10-03T01:31:32;5.95;;;4.93;;
2211;SDS011;48849;48.758;9.158;2022-10-03T01:34:05;4.70;;;4.28;;
2211;SDS011;48849;48.758;9.158;2022-10-03T01:36:38;4.70;;;4.32;;
2211;SDS011;48849;48.758;9.158;2022-10-03T01:39:14;5.72;;;5.15;;
2211;SDS011;48849;48.758;9.158;2022-10-03T01:41:50;6.45;;;5.30;;
2211;SDS011;48849;48.758;9.158;2022-10-03T01:44:27;7.70;;;5.80;;
2211;SDS011;48849;48.758;9.158;2022-10-03T01:47:06;5.90;;;5.40;;
2211;SDS011;48849;48.758;9.158;2022-10-03T01:49:45;6.70;;;6.10;;
2211;SDS011;48849;48.758;9.158;2022-10-03T01:52:20;5.85;;;5.03;;
2211;SDS011;48849;48.758;9.158;2022-10-03T01:54:55;10.48;;;5.20;;
2211;SDS011;48849;48.758;9.158;2022-10-03T01:57:30;5.05;;;4.45;;
2211;SDS011;48849;48.758;9.158;2022-10-03T02:00:05;5.53;;;5.03;;
2211;SDS011;48849;48.758;9.158;2022-10-03T02:02:38;5.85;;;5.35;;
2211;SDS011;48849;48.758;9.158;2022-10-03T02:05:10;6.53;;;5.93;;
2211;SDS011;48849;48.758;9.158;2022-10-03T02:07:44;6.45;;;5.57;;
2211;SDS011;48849;48.758;9.158;2022-10-03T02:10:21;6.88;;;6.28;;
2211;SDS011;48849;48.758;9.158;2022-10-03T02:12:59;7.32;;;6.70;;
2211;SDS011;48849;48.758;9.158;2022-10-03T02:15:38;6.53;;;5.88;;
2211;SDS011;48849;48.758;9.158;2022-10-03T02:18:13;6.40;;;5.80;;
2211;SDS011;48849;48.758;9.158;2022-10-03T02:20:46;7.45;;;6.00;;
2211;SDS011;48849;48.758;9.158;2022-10-03T02:23:23;6.03;;;5.53;;
2211;SDS011;48849;48.758;9.158;2022-10-03T02:26:09;8.93;;;6.10;;
2211;SDS011;48849;48.758;9.158;2022-10-03T02:29:12;6.00;;;5.50;;
2211;SDS011;48849;48.758;9.158;2022-10-03T02:32:12;7.28;;;6.15;;
2211;SDS011;48849;48.758;9.158;2022-10-03T02:35:08;7.53;;;6.90;;
2211;SDS011;48849;48.758;9.158;2022-10-03T02:37:54;7.45;;;6.85;;
2211;SDS011;48849;48.758;9.158;2022-10-03T02:43:55;7.00;;;6.30;;
2211;SDS011;48849;48.758;9.158;2022-10-03T03:02:33;8.35;;;7.40;;
2211;SDS011;48849;48.758;9.158;2022-10-03T03:05:39;7.90;;;7.20;;
2211;SDS011;48849;48.758;9.158;2022-10-03T03:08:40;8.10;;;7.30;;
2211;SDS011;48849;48.758;9.158;2022-10-03T03:11:43;7.55;;;6.75;;
2211;SDS011;48849;48.758;9.158;2022-10-03T03:14:47;7.85;;;7.05;;
2211;SDS011;48849;48.758;9.158;2022-10-03T03:17:36;7.70;;;6.90;;
2211;SDS011;48849;48.758;9.158;2022-10-03T03:26:08;7.78;;;7.10;;
2211;SDS011;48849;48.758;9.158;2022-10-03T03:28:54;7.03;;;5.95;;
2211;SDS011;48849;48.758;9.158;2022-10-03T03:31:38;8.70;;;6.53;;
2211;SDS011;48849;48.758;9.158;2022-10-03T03:34:17;7.35;;;6.60;;
2211;SDS011;48849;48.758;9.158;2022-10-03T03:36:52;7.85;;;7.00;;
2211;SDS011;48849;48.758;9.158;2022-10-03T03:39:33;7.68;;;6.97;;
2211;SDS011;48849;48.758;9.158;2022-10-03T03:42:21;7.88;;;7.15;;
2211;SDS011;48849;48.758;9.158;2022-10-03T03:45:34;8.50;;;7.70;;
2211;SDS011;48849;48.758;9.158;2022-10-03T03:48:14;7.40;;;6.70;;
2211;SDS011;48849;48.758;9.158;2022-10-03T03:50:58;7.25;;;6.60;;
2211;SDS011;48849;48.758;9.158;2022-10-03T03:53:43;7.70;;;6.15;;
2211;SDS011;48849;48.758;9.158;2022-10-03T03:56:42;7.10;;;6.43;;
2211;SDS011;48849;48.758;9.158;2022-10-03T03:59:25;7.75;;;7.05;;
2211;SDS011;48849;48.758;9.158;2022-10-03T04:02:09;6.97;;;6.38;;
2211;SDS011;48849;48.758;9.158;2022-10-03T04:04:55;7.65;;;6.90;;
2211;SDS011;48849;48.758;9.158;2022-10-03T04:07:38;8.48;;;7.18;;
2211;SDS011;48849;48.758;9.158;2022-10-03T04:10:18;8.80;;;7.60;;
2211;SDS011;48849;48.758;9.158;2022-10-03T04:13:02;10.98;;;7.60;;
2211;SDS011;48849;48.758;9.158;2022-10-03T04:15:55;10.50;;;8.52;;
2211;SDS011;48849;48.758;9.158;2022-10-03T04:18:47;7.78;;;7.07;;
2211;SDS011;48849;48.758;9.158;2022-10-03T04:24:21;8.52;;;7.72;;
2211;SDS011;48849;48.758;9.158;2022-10-03T04:27:07;8.60;;;7.75;;
2211;SDS011;48849;48.758;9.158;2022-10-03T04:29:46;9.00;;;7.57;;
2211;SDS011;48849;48.758;9.158;2022-10-03T04:32:23;8.43;;;7.72;;
2211;SDS011;48849;48.758;9.158;2022-10-03T04:35:06;9.02;;;7.60;;
2211;SDS011;48849;48.758;9.158;2022-10-03T04:37:43;9.73;;;8.02;;
2211;SDS011;48849;48.758;9.158;2022-10-03T04:40:22;8.88;;;7.95;;
2211;SDS011;48849;48.758;9.158;2022-10-03T04:42:56;14.18;;;7.50;;
2211;SDS011;48849;48.758;9.158;2022-10-03T04:45:34;8.40;;;7.63;;
2211;SDS011;48849;48.758;9.158;2022-10-03T04:48:15;8.82;;;8.02;;
2211;SDS011;48849;48.758;9.158;2022-10-03T04:50:56;8.48;;;7.70;;
2211;SDS011;48849;48.758;9.158;2022-10-03T04:53:43;10.15;;;8.50;;
2211;SDS011;48849;48.758;9.158;2022-10-03T04:56:27;10.23;;;9.13;;
2211;SDS011;48849;48.758;9.158;2022-10-03T04:59:07;10.40;;;9.30;;
2211;SDS011;48849;48.758;9.158;2022-10-03T05:01:52;9.15;;;8.25;;
2211;SDS011;48849;48.758;9.158;2022-10-03T05:04:28;10.82;;;8.85;;
2211;SDS011;48849;48.758;9.158;2022-10-03T05:07:05;9.98;;;8.95;;
2211;SDS011;48849;48.758;9.158;2022-10-03T05:09:41;10.75;;;9.45;;
2211;SDS011;48849;48.758;9.158;2022-10-03T05:12:15;11.45;;;10.35;;
2211;SDS011;48849;48.758;9.158;2022-10-03T05:14:57;11.55;;;9.20;;
2211;SDS011;48849;48.758;9.158;2022-10-03T05:17:40;10.68;;;9.25;;
2211;SDS011;48849;48.758;9.158;2022-10-03T05:20:23;10.80;;;9.80;;
2211;SDS011;48849;48.758;9.158;2022-10-03T05:23:00;10.52;;;9.48;;
2211;SDS011;48849;48.758;9.158;2022-10-03T05:25:39;10.88;;;9.20;;
2211;SDS011;48849;48.758;9.158;2022-10-03T05:28:20;12.30;;;9.63;;
2211;SDS011;48849;48.758;9.158;2022-10-03T05:31:00;10.25;;;9.20;;
2211;SDS011;48849;48.758;9.158;2022-10-03T05:33:39;13.15;;;8.65;;
2211;SDS011;48849;48.758;9.158;2022-10-03T05:36:14;9.25;;;7.60;;
2211;SDS011;48849;48.758;9.158;2022-10-03T05:39:00;11.35;;;8.45;;
2211;SDS011;48849;48.758;9.158;2022-10-03T05:42:03;8.82;;;7.88;;
2211;SDS011;48849;48.758;9.158;2022-10-03T05:44:46;8.90;;;8.10;;
2211;SDS011;48849;48.758;9.158;2022-10-03T05:47:24;9.98;;;8.45;;
2211;SDS011;48849;48.758;9.158;2022-10-03T05:50:24;10.80;;;9.20;;
2211;SDS011;48849;48.758;9.158;2022-10-03T05:56:00;9.65;;;8.55;;
2211;SDS011;48849;48.758;9.158;2022-10-03T05:58:37;9.70;;;8.70;;
2211;SDS011;48849;48.758;9.158;2022-10-03T06:01:29;13.05;;;10.38;;
2211;SDS011;48849;48.758;9.158;2022-10-03T06:04:22;11.82;;;9.20;;
2211;SDS011;48849;48.758;9.158;2022-10-03T06:07:24;11.93;;;10.40;;
2211;SDS011;48849;48.758;9.158;2022-10-03T06:12:52;15.48;;;11.38;;
2211;SDS011;48849;48.758;9.158;2022-10-03T06:15:37;12.38;;;10.82;;
2211;SDS011;48849;48.758;9.158;2022-10-03T06:18:20;15.63;;;12.63;;
2211;SDS011;48849;48.758;9.158;2022-10-03T06:21:17;14.65;;;12.85;;
2211;SDS011;48849;48.758;9.158;2022-10-03T06:24:07;20.17;;;13.85;;
2211;SDS011;48849;48.758;9.158;2022-10-03T06:26:50;17.00;;;13.68;;
2211;SDS011;48849;48.758;9.158;2022-10-03T06:29:44;18.60;;;14.07;;
2211;SDS011;48849;48.758;9.158;2022-10-03T06:45:11;22.58;;;12.98;;
2211;SDS011;48849;48.758;9.158;2022-10-03T06:48:02;17.85;;;14.20;;
2211;SDS011;48849;48.758;9.158;2022-10-03T06:50:50;20.88;;;13.25;;
2211;SDS011;48849;48.758;9.158;2022-10-03T06:53:24;15.07;;;13.43;;
2211;SDS011;48849;48.758;9.158;2022-10-03T06:56:25;17.92;;;14.05;;
2211;SDS011;48849;48.758;9.158;2022-10-03T07:02:37;20.27;;;13.27;;
2211;SDS011;48849;48.758;9.158;2022-10-03T07:05:38;18.30;;;15.13;;
2211;SDS011;48849;48.758;9.158;2022-10-03T07:11:53;22.02;;;15.82;;
2211;SDS011;48849;48.758;9.158;2022-10-03T07:15:22;21.85;;;15.75;;
2211;SDS011;48849;48.758;9.158;2022-10-03T07:21:39;23.02;;;17.85;;
2211;SDS011;48849;48.758;9.158;2022-10-03T07:24:40;20.80;;;16.35;;
2211;SDS011;48849;48.758;9.158;2022-10-03T07:27:44;22.20;;;17.88;;
2211;SDS011;48849;48.758;9.158;2022-10-03T07:30:30;22.48;;;16.60;;
2211;SDS011;48849;48.758;9.158;2022-10-03T07:33:27;20.02;;;16.60;;
2211;SDS011;48849;48.758;9.158;2022-10-03T07:36:52;21.00;;;17.48;;
2211;SDS011;48849;48.758;9.158;2022-10-03T07:39:51;21.23;;;15.73;;
2211;SDS011;48849;48.758;9.158;2022-10-03T07:43:04;20.25;;;17.60;;
2211;SDS011;48849;48.758;9.158;2022-10-03T07:46:03;21.23;;;17.30;;
2211;SDS011;48849;48.758;9.158;2022-10-03T07:49:01;24.05;;;18.02;;
2211;SDS011;48849;48.758;9.158;2022-10-03T07:51:43;22.40;;;17.83;;
2211;SDS011;48849;48.758;9.158;2022-10-03T07:54:35;21.73;;;16.77;;
2211;SDS011;48849;48.758;9.158;2022-10-03T07:57:28;21.40;;;16.13;;
2211;SDS011;48849;48.758;9.158;2022-10-03T08:00:18;25.77;;;19.63;;
2211;SDS011;48849;48.758;9.158;2022-10-03T08:05:54;27.25;;;16.80;;
2211;SDS011;48849;48.758;9.158;2022-10-03T08:08:52;21.77;;;17.35;;
2211;SDS011;48849;48.758;9.158;2022-10-03T08:14:48;19.88;;;16.08;;
2211;SDS011;48849;48.758;9.158;2022-10-03T08:17:29;21.80;;;15.45;;
2211;SDS011;48849;48.758;9.158;2022-10-03T08:20:20;24.95;;;18.13;;
2211;SDS011;48849;48.758;9.158;2022-10-03T08:23:02;21.00;;;17.35;;
2211;SDS011;48849;48.758;9.158;2022-10-03T08:25:51;25.02;;;17.02;;
2211;SDS011;48849;48.758;9.158;2022-10-03T08:28:37;20.23;;;16.67;;
2211;SDS011;48849;48.758;9.158;2022-10-03T08:37:30;22.40;;;17.40;;
2211;SDS011;48849;48.758;9.158;2022-10-03T08:40:35;26.50;;;16.52;;
2211;SDS011;48849;48.758;9.158;2022-10-03T08:43:46;23.63;;;18.58;;
2211;SDS011;48849;48.758;9.158;2022-10-03T08:53:02;22.40;;;17.35;;
2211;SDS011;48849;48.758;9.158;2022-10-03T08:55:53;24.17;;;18.25;;
2211;SDS011;48849;48.758;9.158;2022-10-03T08:58:27;21.98;;;17.83;;
2211;SDS011;48849;48.758;9.158;2022-10-03T09:01:14;22.90;;;17.55;;
2211;SDS011;48849;48.758;9.158;2022-10-03T09:07:20;24.90;;;19.35;;
2211;SDS011;48849;48.758;9.158;2022-10-03T09:10:17;20.75;;;17.10;;
2211;SDS011;48849;48.758;9.158;2022-10-03T09:13:04;20.52;;;16.05;;
2211;SDS011;48849;48.758;9.158;2022-10-03T09:15:59;24.70;;;16.08;;
2211;SDS011;48849;48.758;9.158;2022-10-03T09:18:55;17.13;;;14.77;;
2211;SDS011;48849;48.758;9.158;2022-10-03T09:21:42;17.00;;;14.05;;
2211;SDS011;48849;48.758;9.158;2022-10-03T09:24:35;19.77;;;13.52;;
2211;SDS011;48849;48.758;9.158;2022-10-03T09:27:28;21.52;;;14.43;;
2211;SDS011;48849;48.758;9.158;2022-10-03T09:30:07;17.38;;;13.00;;
2211;SDS011;48849;48.758;9.158;2022-10-03T09:33:08;16.83;;;13.20;;
2211;SDS011;48849;48.758;9.158;2022-10-03T09:36:07;14.70;;;12.70;;
2211;SDS011;48849;48.758;9.158;2022-10-03T09:45:14;17.80;;;12.38;;
2211;SDS011;48849;48.758;9.158;2022-10-03T09:51:06;14.93;;;11.48;;
2211;SDS011;48849;48.758;9.158;2022-10-03T09:54:00;22.63;;;15.27;;
2211;SDS011;48849;48.758;9.158;2022-10-03T09:57:05;19.67;;;12.82;;
2211;SDS011;48849;48.758;9.158;2022-10-03T09:59:57;17.50;;;12.15;;
2211;SDS011;48849;48.758;9.158;2022-10-03T10:17:52;16.52;;;11.23;;
2211;SDS011;48849;48.758;9.158;2022-10-03T10:21:02;16.58;;;11.13;;
2211;SDS011;48849;48.758;9.158;2022-10-03T10:23:55;15.20;;;11.38;;
2211;SDS011;48849;48.758;9.158;2022-10-03T10:38:56;15.05;;;11.02;;
2211;SDS011;48849;48.758;9.158;2022-10-03T10:48:31;11.57;;;8.52;;
2211;SDS011;48849;48.758;9.158;2022-10-03T10:51:42;12.73;;;9.63;;
2211;SDS011;48849;48.758;9.158;2022-10-03T10:57:50;11.82;;;8.57;;
2211;SDS011;48849;48.758;9.158;2022-10-03T11:00:53;15.32;;;9.10;;
2211;SDS011;48849;48.758;9.158;2022-10-03T11:03:57;12.32;;;8.95;;
2211;SDS011;48849;48.758;9.158;2022-10-03T11:06:58;16.77;;;8.93;;
2211;SDS011;48849;48.758;9.158;2022-10-03T11:16:15;11.00;;;9.88;;
2211;SDS011;48849;48.758;9.158;2022-10-03T11:19:34;9.98;;;8.90;;
2211;SDS011;48849;48.758;9.158;2022-10-03T11:25:55;12.38;;;9.60;;
2211;SDS011;48849;48.758;9.158;2022-10-03T11:28:52;12.20;;;9.10;;
2211;SDS011;48849;48.758;9.158;2022-10-03T11:37:59;10.18;;;7.78;;
2211;SDS011;48849;48.758;9.158;2022-10-03T11:40:34;13.20;;;8.32;;
2211;SDS011;48849;48.758;9.158;2022-10-03T11:46:29;10.50;;;7.35;;
2211;SDS011;48849;48.758;9.158;2022-10-03T11:49:33;8.70;;;7.50;;
2211;SDS011;48849;48.758;9.158;2022-10-03T11:52:17;13.25;;;8.23;;
2211;SDS011;48849;48.758;9.158;2022-10-03T11:54:58;9.07;;;7.88;;
2211;SDS011;48849;48.758;9.158;2022-10-03T11:57:33;11.38;;;7.55;;
2211;SDS011;48849;48.758;9.158;2022-10-03T12:00:08;9.48;;;7.32;;
2211;SDS011;48849;48.758;9.158;2022-10-03T12:02:55;9.48;;;6.72;;
2211;SDS011;48849;48.758;9.158;2022-10-03T12:05:46;8.63;;;5.68;;
2211;SDS011;48849;48.758;9.158;2022-10-03T12:08:37;6.55;;;5.40;;
2211;SDS011;48849;48.758;9.158;2022-10-03T12:11:22;7.32;;;5.20;;
2211;SDS011;48849;48.758;9.158;2022-10-03T12:14:00;7.28;;;5.30;;
2211;SDS011;48849;48.758;9.158;2022-10-03T12:16:44;9.10;;;5.18;;
2211;SDS011;48849;48.758;9.158;2022-10-03T12:19:23;5.53;;;4.75;;
2211;SDS011;48849;48.758;9.158;2022-10-03T12:21:55;8.32;;;5.13;;
2211;SDS011;48849;48.758;9.158;2022-10-03T12:24:25;8.90;;;5.40;;
2211;SDS011;48849;48.758;9.158;2022-10-03T12:26:56;10.25;;;5.25;;
2211;SDS011;48849;48.758;9.158;2022-10-03T12:29:29;8.93;;;5.45;;
2211;SDS011;48849;48.758;9.158;2022-10-03T12:32:15;7.57;;;5.63;;
2211;SDS011;48849;48.758;9.158;2022-10-03T12:34:49;9.57;;;5.65;;
2211;SDS011;48849;48.758;9.158;2022-10-03T12:37:38;9.23;;;6.50;;
2211;SDS011;48849;48.758;9.158;2022-10-03T12:40:13;12.55;;;5.50;;
2211;SDS011;48849;48.758;9.158;2022-10-03T12:42:46;8.88;;;5.90;;
2211;SDS011;48849;48.758;9.158;2022-10-03T12:45:25;9.88;;;5.25;;
2211;SDS011;48849;48.758;9.158;2022-10-03T12:48:01;7.63;;;5.95;;
2211;SDS011;48849;48.758;9.158;2022-10-03T12:50:50;8.63;;;5.40;;
2211;SDS011;48849;48.758;9.158;2022-10-03T12:56:16;8.20;;;6.18;;
2211;SDS011;48849;48.758;9.158;2022-10-03T12:58:59;13.73;;;6.47;;
2211;SDS011;48849;48.758;9.158;2022-10-03T13:01:41;9.48;;;5.70;;
2211;SDS011;48849;48.758;9.158;2022-10-03T13:04:30;6.55;;;5.10;;
2211;SDS011;48849;48.758;9.158;2022-10-03T13:07:09;9.30;;;5.80;;
2211;SDS011;48849;48.758;9.158;2022-10-03T13:09:55;8.95;;;5.88;;
2211;SDS011;48849;48.758;9.158;2022-10-03T13:12:36;10.52;;;6.15;;
2211;SDS011;48849;48.758;9.158;2022-10-03T13:15:33;6.97;;;4.85;;
2211;SDS011;48849;48.758;9.158;2022-10-03T13:18:14;5.53;;;4.93;;
2211;SDS011;48849;48.758;9.158;2022-10-03T13:20:54;8.57;;;5.00;;
2211;SDS011;48849;48.758;9.158;2022-10-03T13:23:28;8.18;;;5.03;;
2211;SDS011;48849;48.758;9.158;2022-10-03T13:26:07;6.78;;;5.20;;
2211;SDS011;48849;48.758;9.158;2022-10-03T13:28:44;7.05;;;4.95;;
2211;SDS011;48849;48.758;9.158;2022-10-03T13:31:37;10.73;;;5.22;;
2211;SDS011;48849;48.758;9.158;2022-10-03T13:34:20;6.78;;;4.85;;
2211;SDS011;48849;48.758;9.158;2022-10-03T13:36:53;11.52;;;5.45;;
2211;SDS011;48849;48.758;9.158;2022-10-03T13:39:24;7.38;;;5.15;;
2211;SDS011;48849;48.758;9.158;2022-10-03T13:41:59;8.55;;;5.20;;
2211;SDS011;48849;48.758;9.158;2022-10-03T13:44:37;10.23;;;5.20;;
2211;SDS011;48849;48.758;9.158;2022-10-03T13:47:12;6.00;;;4.80;;
2211;SDS011;48849;48.758;9.158;2022-10-03T13:49:53;7.68;;;4.78;;
2211;SDS011;48849;48.758;9.158;2022-10-03T13:52:28;8.25;;;5.45;;
2211;SDS011;48849;48.758;9.158;2022-10-03T13:55:08;8.07;;;5.30;;
2211;SDS011;48849;48.758;9.158;2022-10-03T13:57:44;6.97;;;4.78;;
2211;SDS011;48849;48.758;9.158;2022-10-03T14:00:20;9.55;;;7.55;;
2211;SDS011;48849;48.758;9.158;2022-10-03T14:03:09;11.27;;;8.52;;
2211;SDS011;48849;48.758;9.158;2022-10-03T14:05:47;11.60;;;6.25;;
2211;SDS011;48849;48.758;9.158;2022-10-03T14:08:48;11.18;;;6.53;;
2211;SDS011;48849;48.758;9.158;2022-10-03T14:11:26;8.95;;;5.60;;
2211;SDS011;48849;48.758;9.158;2022-10-03T14:14:14;6.80;;;4.88;;
2211;SDS011;48849;48.758;9.158;2022-10-03T14:17:04;7.30;;;4.80;;
2211;SDS011;48849;48.758;9.158;2022-10-03T14:19:38;10.07;;;6.88;;
2211;SDS011;48849;48.758;9.158;2022-10-03T14:22:13;8.05;;;6.30;;
2211;SDS011;48849;48.758;9.158;2022-10-03T14:24:55;14.02;;;9.52;;
2211;SDS011;48849;48.758;9.158;2022-10-03T14:27:40;10.57;;;8.73;;
2211;SDS011;48849;48.758;9.158;2022-10-03T14:30:19;14.95;;;9.52;;
2211;SDS011;48849;48.758;9.158;2022-10-03T14:33:05;9.63;;;7.63;;
2211;SDS011;48849;48.758;9.158;2022-10-03T14:35:42;12.88;;;6.50;;
2211;SDS011;48849;48.758;9.158;2022-10-03T14:38:25;7.53;;;5.78;;
2211;SDS011;48849;48.758;9.158;2022-10-03T14:41:40;8.25;;;5.55;;
2211;SDS011;48849;48.758;9.158;2022-10-03T14:44:12;4.68;;;4.22;;
2211;SDS011;48849;48.758;9.158;2022-10-03T14:46:46;7.22;;;4.80;;
2211;SDS011;48849;48.758;9.158;2022-10-03T14:49:17;7.30;;;4.50;;
2211;SDS011;48849;48.758;9.158;2022-10-03T14:51:50;22.13;;;5.85;;
2211;SDS011;48849;48.758;9.158;2022-10-03T14:54:22;10.48;;;8.65;;
2211;SDS011;48849;48.758;9.158;2022-10-03T14:56:53;13.43;;;9.05;;
2211;SDS011;48849;48.758;9.158;2022-10-03T14:59:21;12.50;;;6.00;;
2211;SDS011;48849;48.758;9.158;2022-10-03T15:01:51;8.70;;;5.43;;
2211;SDS011;48849;48.758;9.158;2022-10-03T15:04:23;8.40;;;4.90;;
2211;SDS011;48849;48.758;9.158;2022-10-03T15:06:54;10.95;;;5.13;;
2211;SDS011;48849;48.758;9.158;2022-10-03T15:09:32;6.45;;;4.50;;
2211;SDS011;48849;48.758;9.158;2022-10-03T15:12:11;7.53;;;5.25;;
2211;SDS011;48849;48.758;9.158;2022-10-03T15:14:43;8.88;;;4.63;;
2211;SDS011;48849;48.758;9.158;2022-10-03T15:17:16;9.43;;;7.22;;
2211;SDS011;48849;48.758;9.158;2022-10-03T15:19:49;9.75;;;8.75;;
2211;SDS011;48849;48.758;9.158;2022-10-03T15:22:30;11.35;;;9.98;;
2211;SDS011;48849;48.758;9.158;2022-10-03T15:25:19;11.18;;;9.25;;
2211;SDS011;48849;48.758;9.158;2022-10-03T15:27:53;21.65;;;10.40;;
2211;SDS011;48849;48.758;9.158;2022-10-03T15:30:23;11.75;;;9.73;;
2211;SDS011;48849;48.758;9.158;2022-10-03T15:32:52;9.95;;;8.32;;
2211;SDS011;48849;48.758;9.158;2022-10-03T15:35:23;9.48;;;6.70;;
2211;SDS011;48849;48.758;9.158;2022-10-03T15:37:53;9.63;;;7.35;;
2211;SDS011;48849;48.758;9.158;2022-10-03T15:40:24;9.20;;;7.63;;
2211;SDS011;48849;48.758;9.158;2022-10-03T15:43:02;11.43;;;7.90;;
2211;SDS011;48849;48.758;9.158;2022-10-03T15:45:33;15.50;;;12.30;;
2211;SDS011;48849;48.758;9.158;2022-10-03T15:48:03;13.77;;;10.05;;
2211;SDS011;48849;48.758;9.158;2022-10-03T15:50:37;10.23;;;8.25;;
2211;SDS011;48849;48.758;9.158;2022-10-03T15:53:08;9.43;;;6.50;;
2211;SDS011;48849;48.758;9.158;2022-10-03T15:55:41;16.17;;;5.80;;
2211;SDS011;48849;48.758;9.158;2022-10-03T15:58:15;5.50;;;4.57;;
2211;SDS011;48849;48.758;9.158;2022-10-03T16:00:47;9.30;;;5.25;;
2211;SDS011;48849;48.758;9.158;2022-10-03T16:03:21;8.43;;;5.88;;
2211;SDS011;48849;48.758;9.158;2022-10-03T16:05:55;6.13;;;5.07;;
2211;SDS011;48849;48.758;9.158;2022-10-03T16:08:32;7.25;;;5.30;;
2211;SDS011;48849;48.758;9.158;2022-10-03T16:11:05;7.65;;;4.90;;
2211;SDS011;48849;48.758;9.158;2022-10-03T16:13:39;7.72;;;4.35;;
2211;SDS011;48849;48.758;9.158;2022-10-03T16:16:12;9.25;;;4.90;;
2211;SDS011;48849;48.758;9.158;2022-10-03T16:18:46;9.27;;;4.75;;
2211;SDS011;48849;48.758;9.158;2022-10-03T16:21:29;9.35;;;6.20;;
2211;SDS011;48849;48.758;9.158;2022-10-03T16:24:15;8.07;;;5.95;;
2211;SDS011;48849;48.758;9.158;2022-10-03T16:26:48;5.45;;;4.65;;
2211;SDS011;48849;48.758;9.158;2022-10-03T16:29:20;6.68;;;4.63;;
2211;SDS011;48849;48.758;9.158;2022-10-03T16:31:50;6.95;;;4.78;;
2211;SDS011;48849;48.758;9.158;2022-10-03T16:34:21;7.95;;;5.53;;
2211;SDS011;48849;48.758;9.158;2022-10-03T16:36:50;8.77;;;5.18;;
2211;SDS011;48849;48.758;9.158;2022-10-03T16:39:19;10.00;;;5.75;;
2211;SDS011;48849;48.758;9.158;2022-10-03T16:41:49;10.05;;;5.13;;
2211;SDS011;48849;48.758;9.158;2022-10-03T16:44:21;10.30;;;6.70;;
2211;SDS011;48849;48.758;9.158;2022-10-03T16:46:51;7.63;;;4.57;;
2211;SDS011;48849;48.758;9.158;2022-10-03T16:49:27;5.03;;;4.53;;
2211;SDS011;48849;48.758;9.158;2022-10-03T16:52:22;7.30;;;6.00;;
2211;SDS011;48849;48.758;9.158;2022-10-03T16:54:56;6.70;;;4.20;;
2211;SDS011;48849;48.758;9.158;2022-10-03T16:57:28;7.53;;;4.50;;
2211;SDS011;48849;48.758;9.158;2022-10-03T17:00:05;8.43;;;5.60;;
2211;SDS011;48849;48.758;9.158;2022-10-03T17:02:39;9.05;;;4.20;;
2211;SDS011;48849;48.758;9.158;2022-10-03T17:05:07;6.80;;;4.22;;
2211;SDS011;48849;48.758;9.158;2022-10-03T17:07:38;10.13;;;4.60;;
2211;SDS011;48849;48.758;9.158;2022-10-03T17:10:16;8.35;;;4.40;;
2211;SDS011;48849;48.758;9.158;2022-10-03T17:13:05;4.97;;;4.18;;
2211;SDS011;48849;48.758;9.158;2022-10-03T17:15:43;5.85;;;4.55;;
2211;SDS011;48849;48.758;9.158;2022-10-03T17:18:17;6.75;;;4.93;;
2211;SDS011;48849;48.758;9.158;2022-10-03T17:20:47;12.32;;;5.53;;
2211;SDS011;48849;48.758;9.158;2022-10-03T17:23:20;13.77;;;5.10;;
2211;SDS011;48849;48.758;9.158;2022-10-03T17:25:57;6.72;;;4.68;;
2211;SDS011;48849;48.758;9.158;2022-10-03T17:31:25;7.18;;;5.10;;
2211;SDS011;48849;48.758;9.158;2022-10-03T17:33:58;7.97;;;4.75;;
2211;SDS011;48849;48.758;9.158;2022-10-03T17:39:36;8.65;;;5.30;;
2211;SDS011;48849;48.758;9.158;2022-10-03T17:42:11;8.20;;;4.80;;
2211;SDS011;48849;48.758;9.158;2022-10-03T17:44:52;6.38;;;4.57;;
2211;SDS011;48849;48.758;9.158;2022-10-03T17:47:28;10.10;;;5.28;;
2211;SDS011;48849;48.758;9.158;2022-10-03T17:50:03;6.30;;;4.90;;
2211;SDS011;48849;48.758;9.158;2022-10-03T17:52:38;8.98;;;4.95;;
2211;SDS011;48849;48.758;9.158;2022-10-03T17:55:06;6.35;;;4.97;;
2211;SDS011;48849;48.758;9.158;2022-10-03T17:57:38;8.07;;;6.45;;
2211;SDS011;48849;48.758;9.158;2022-10-03T18:00:15;6.07;;;5.00;;
2211;SDS011;48849;48.758;9.158;2022-10-03T18:02:47;7.32;;;6.07;;
2211;SDS011;48849;48.758;9.158;2022-10-03T18:05:21;9.98;;;5.95;;
2211;SDS011;48849;48.758;9.158;2022-10-03T18:07:52;12.73;;;5.60;;
2211;SDS011;48849;48.758;9.158;2022-10-03T18:10:21;10.68;;;6.05;;
2211;SDS011;48849;48.758;9.158;2022-10-03T18:12:53;9.27;;;5.45;;
2211;SDS011;48849;48.758;9.158;2022-10-03T18:15:31;6.80;;;4.88;;
2211;SDS011;48849;48.758;9.158;2022-10-03T18:21:36;7.88;;;5.55;;
2211;SDS011;48849;48.758;9.158;2022-10-03T18:24:24;11.25;;;7.40;;
2211;SDS011;48849;48.758;9.158;2022-10-03T18:27:07;14.10;;;7.93;;
2211;SDS011;48849;48.758;9.158;2022-10-03T18:29:50;8.32;;;7.18;;
2211;SDS011;48849;48.758;9.158;2022-10-03T18:32:21;9.98;;;6.57;;
2211;SDS011;48849;48.758;9.158;2022-10-03T18:34:57;6.25;;;5.60;;
2211;SDS011;48849;48.758;9.158;2022-10-03T18:37:51;6.65;;;5.40;;
2211;SDS011;48849;48.758;9.158;2022-10-03T18:40:23;8.27;;;6.00;;
2211;SDS011;48849;48.758;9.158;2022-10-03T18:42:52;9.32;;;5.63;;
2211;SDS011;48849;48.758;9.158;2022-10-03T18:45:20;9.45;;;5.60;;
2211;SDS011;48849;48.758;9.158;2022-10-03T18:47:51;12.82;;;6.30;;
2211;SDS011;48849;48.758;9.158;2022-10-03T18:50:25;7.38;;;5.60;;
2211;SDS011;48849;48.758;9.158;2022-10-03T18:52:57;8.43;;;7.30;;
2211;SDS011;48849;48.758;9.158;2022-10-03T18:55:30;11.25;;;7.57;;
2211;SDS011;48849;48.758;9.158;2022-10-03T18:58:05;12.05;;;6.40;;
2211;SDS011;48849;48.758;9.158;2022-10-03T19:00:44;10.88;;;8.13;;
2211;SDS011;48849;48.758;9.158;2022-10-03T19:03:17;9.48;;;6.50;;
2211;SDS011;48849;48.758;9.158;2022-10-03T19:05:49;9.15;;;6.32;;
2211;SDS011;48849;48.758;9.158;2022-10-03T19:08:20;6.70;;;6.00;;